EGGP/LPL METAR and TAF weather

Enter ICAO airport designator
Station Type Date Time Source
EGGP METAR 2020/09/26 11:20 UTC NOAA

EGGP 261120Z 34016KT 9999 SCT042 SCT047 12/04 Q1015


Station Type Date Time Source
EGGP Decoded METAR 2020/09/26 11:20 UTC NOAA

Liverpool Airport , United Kingdom (EGGP) 53-20N 002-51W
Sep 26, 2020 - 07:20 AM EDT / 2020.09.26 1120 UTC
Wind: from the NNW (340 degrees) at 18 MPH (16 KT):0
Visibility: greater than 7 mile(s):0
Sky conditions: partly cloudy
Temperature: 53 F (12 C)
Dew Point: 39 F (4 C)
Relative Humidity: 57%
Pressure (altimeter): 29.97 in. Hg (1015 hPa)
ob: EGGP 261120Z 34016KT 9999 SCT042 SCT047 12/04 Q1015
cycle: 11

Station Type Date Time Source
EGGP TAF 2020/09/26 12:09 UTC NOAA

TAF EGGP 261054Z 2612/2712 34010KT 9999 FEW045

Example: see airport list